createdAt,value
2022-09-16T00:00:34.938Z,5.90
2022-09-16T00:03:01.772Z,6.50
2022-09-16T00:05:28.350Z,6.13
2022-09-16T00:07:55.872Z,5.72
2022-09-16T00:10:23.196Z,5.60
2022-09-16T00:12:52.795Z,6.38
2022-09-16T00:15:22.648Z,6.32
2022-09-16T00:17:52.117Z,6.30
2022-09-16T00:20:18.924Z,6.25
2022-09-16T00:22:45.725Z,6.30
2022-09-16T00:25:12.276Z,6.10
2022-09-16T00:27:38.853Z,6.10
2022-09-16T00:30:06.059Z,6.50
2022-09-16T00:32:32.711Z,6.40
2022-09-16T00:34:59.224Z,6.10
2022-09-16T00:37:25.816Z,6.80
2022-09-16T00:39:52.377Z,6.57
2022-09-16T00:42:22.267Z,6.13
2022-09-16T00:45:00.299Z,6.28
2022-09-16T00:47:46.057Z,6.93
2022-09-16T00:50:27.141Z,6.63
2022-09-16T00:52:54.723Z,7.07
2022-09-16T00:55:30.344Z,6.40
2022-09-16T00:58:05.117Z,6.38
2022-09-16T01:00:32.396Z,6.68
2022-09-16T01:02:59.042Z,6.50
2022-09-16T01:05:26.978Z,5.88
2022-09-16T01:07:54.722Z,6.55
2022-09-16T01:10:24.583Z,6.80
2022-09-16T01:13:02.682Z,6.47
2022-09-16T01:15:45.546Z,6.22
2022-09-16T01:18:18.263Z,6.30
2022-09-16T01:20:53.637Z,6.30
2022-09-16T01:23:45.059Z,6.00
2022-09-16T01:26:29.967Z,6.35
2022-09-16T01:29:10.973Z,5.82
2022-09-16T01:31:54.024Z,6.40
2022-09-16T01:34:32.273Z,5.75
2022-09-16T01:37:08.610Z,5.75
2022-09-16T01:39:54.136Z,5.85
2022-09-16T01:42:49.463Z,5.75
2022-09-16T01:45:28.298Z,5.55
2022-09-16T01:48:00.711Z,5.10
2022-09-16T01:50:50.667Z,5.10
2022-09-16T01:53:23.926Z,5.47
2022-09-16T01:56:13.494Z,5.00
2022-09-16T01:58:44.976Z,4.57
2022-09-16T02:01:26.347Z,4.47
2022-09-16T02:04:00.411Z,4.70
2022-09-16T02:06:28.646Z,5.10
2022-09-16T02:09:02.851Z,4.75
2022-09-16T02:11:29.848Z,6.05
2022-09-16T02:14:06.366Z,4.72
2022-09-16T02:16:39.376Z,4.97
2022-09-16T02:19:15.759Z,5.53
2022-09-16T02:21:45.827Z,5.80
2022-09-16T02:24:17.882Z,5.45
2022-09-16T02:26:54.214Z,4.60
2022-09-16T02:29:28.001Z,5.30
2022-09-16T02:32:01.024Z,5.32
2022-09-16T02:34:42.237Z,4.85
2022-09-16T02:37:14.361Z,5.20
2022-09-16T02:39:44.995Z,5.50
2022-09-16T02:42:11.743Z,5.00
2022-09-16T02:44:38.757Z,5.43
2022-09-16T02:47:13.697Z,4.97
2022-09-16T02:49:51.423Z,5.20
2022-09-16T02:52:56.142Z,4.65
2022-09-16T02:55:28.592Z,4.90
2022-09-16T02:57:55.170Z,5.38
2022-09-16T03:00:22.703Z,5.05
2022-09-16T03:02:49.694Z,5.20
2022-09-16T03:05:16.299Z,5.13
2022-09-16T03:07:43.202Z,5.50
2022-09-16T03:10:13.208Z,5.60
2022-09-16T03:13:11.148Z,5.20
2022-09-16T03:16:07.421Z,5.75
2022-09-16T03:18:46.304Z,5.50
2022-09-16T03:21:25.587Z,5.07
2022-09-16T03:24:22.243Z,5.78
2022-09-16T03:26:58.411Z,5.30
2022-09-16T03:29:37.562Z,4.90
2022-09-16T03:32:27.755Z,5.95
2022-09-16T03:34:55.884Z,5.38
2022-09-16T03:37:23.895Z,5.47
2022-09-16T03:39:58.128Z,5.35
2022-09-16T03:42:24.883Z,5.18
2022-09-16T03:44:51.937Z,5.30
2022-09-16T03:47:18.518Z,5.07
2022-09-16T03:49:45.053Z,5.57
2022-09-16T03:52:11.837Z,5.50
2022-09-16T03:54:38.801Z,5.47
2022-09-16T03:57:05.928Z,5.57
2022-09-16T03:59:33.081Z,5.97
2022-09-16T04:01:59.725Z,5.72
2022-09-16T04:04:26.472Z,5.82
2022-09-16T04:06:53.031Z,5.60
2022-09-16T04:09:19.615Z,5.60
2022-09-16T04:11:46.208Z,5.65
2022-09-16T04:14:12.800Z,6.05
2022-09-16T04:16:44.308Z,5.70
2022-09-16T04:19:13.479Z,5.85
2022-09-16T04:21:41.315Z,5.85
2022-09-16T04:24:12.848Z,5.47
2022-09-16T04:26:40.576Z,5.75
2022-09-16T04:29:07.167Z,5.13
2022-09-16T04:31:37.124Z,5.28
2022-09-16T04:34:05.205Z,5.47
2022-09-16T04:36:34.814Z,5.93
2022-09-16T04:39:01.371Z,5.68
2022-09-16T04:41:28.092Z,6.25
2022-09-16T04:43:57.304Z,2.92
2022-09-16T04:46:29.147Z,4.22
2022-09-16T04:48:56.594Z,6.15
2022-09-16T04:51:24.194Z,4.22
2022-09-16T04:53:50.720Z,8.55
2022-09-16T04:56:22.835Z,16.27
2022-09-16T04:58:55.668Z,5.75
2022-09-16T05:01:27.896Z,5.15
2022-09-16T05:03:57.642Z,10.52
2022-09-16T05:06:45.994Z,2.83
2022-09-16T05:09:13.669Z,3.63
2022-09-16T05:11:41.818Z,3.28
2022-09-16T05:14:17.569Z,2.80
2022-09-16T05:16:45.482Z,3.30
2022-09-16T05:19:13.371Z,3.22
2022-09-16T05:21:41.427Z,3.05
2022-09-16T05:24:10.442Z,3.50
2022-09-16T05:26:40.180Z,3.25
2022-09-16T05:29:10.945Z,3.13
2022-09-16T05:31:40.152Z,2.97
2022-09-16T05:34:16.546Z,3.85
2022-09-16T05:36:44.479Z,3.63
2022-09-16T05:39:25.090Z,3.22
2022-09-16T05:41:57.017Z,3.00
2022-09-16T05:44:24.575Z,3.38
2022-09-16T05:46:51.483Z,3.30
2022-09-16T05:49:21.268Z,3.03
2022-09-16T05:51:48.633Z,2.85
2022-09-16T05:54:15.752Z,2.97
2022-09-16T05:56:42.580Z,3.75
2022-09-16T05:59:11.966Z,3.13
2022-09-16T06:01:39.201Z,3.15
2022-09-16T06:04:08.251Z,3.17
2022-09-16T06:06:37.451Z,3.65
2022-09-16T06:09:15.563Z,3.22
2022-09-16T06:11:48.762Z,3.45
2022-09-16T06:14:16.325Z,3.80
2022-09-16T06:16:43.422Z,3.72
2022-09-16T06:19:13.218Z,3.50
2022-09-16T06:21:40.977Z,3.58
2022-09-16T06:24:10.714Z,3.67
2022-09-16T06:26:39.469Z,3.00
2022-09-16T06:29:06.873Z,3.10
2022-09-16T06:31:36.212Z,3.70
2022-09-16T06:34:04.020Z,4.35
2022-09-16T06:36:44.638Z,3.38
2022-09-16T06:39:13.484Z,3.67
2022-09-16T06:41:40.005Z,4.20
2022-09-16T06:44:06.583Z,4.10
2022-09-16T06:46:35.119Z,3.95
2022-09-16T06:49:05.688Z,3.67
2022-09-16T06:51:33.890Z,4.60
2022-09-16T06:54:05.791Z,4.20
2022-09-16T06:56:35.969Z,3.95
2022-09-16T06:59:02.546Z,4.32
2022-09-16T07:01:31.279Z,4.13
2022-09-16T07:03:58.861Z,4.05
2022-09-16T07:06:52.253Z,4.47
2022-09-16T07:09:17.174Z,4.55
2022-09-16T07:11:43.678Z,4.13
2022-09-16T07:14:10.322Z,4.38
2022-09-16T07:16:36.945Z,3.70
2022-09-16T07:19:04.559Z,4.97
2022-09-16T07:21:31.333Z,4.53
2022-09-16T07:24:00.310Z,5.10
2022-09-16T07:26:29.809Z,4.57
2022-09-16T07:29:00.087Z,4.32
2022-09-16T07:31:29.400Z,3.67
2022-09-16T07:34:02.908Z,6.43
2022-09-16T07:36:36.281Z,8.48
2022-09-16T07:39:05.128Z,7.43
2022-09-16T07:41:37.767Z,8.45
2022-09-16T07:44:05.835Z,7.38
2022-09-16T07:46:35.185Z,7.80
2022-09-16T07:49:03.691Z,7.50
2022-09-16T07:51:31.344Z,7.43
2022-09-16T07:54:00.556Z,7.50
2022-09-16T07:56:29.920Z,7.85
2022-09-16T07:58:57.617Z,8.00
2022-09-16T08:01:25.168Z,7.00
2022-09-16T08:03:52.218Z,7.07
2022-09-16T08:06:22.357Z,7.35
2022-09-16T08:08:52.576Z,7.88
2022-09-16T08:11:19.668Z,6.72
2022-09-16T08:13:46.557Z,6.18
2022-09-16T08:16:16.450Z,7.78
2022-09-16T08:18:44.063Z,7.38
2022-09-16T08:21:21.599Z,7.50
2022-09-16T08:23:48.489Z,7.18
2022-09-16T08:26:16.647Z,7.60
2022-09-16T08:29:07.268Z,7.50
2022-09-16T08:31:31.500Z,7.07
2022-09-16T08:33:58.062Z,8.00
2022-09-16T08:36:25.808Z,7.90
2022-09-16T08:38:55.746Z,8.10
2022-09-16T08:41:22.350Z,8.10
2022-09-16T08:44:03.060Z,8.10
2022-09-16T08:46:38.568Z,8.18
2022-09-16T08:49:12.028Z,9.15
2022-09-16T08:51:38.727Z,8.30
2022-09-16T08:54:13.065Z,8.05
2022-09-16T08:56:44.240Z,7.93
2022-09-16T08:59:21.960Z,7.20
2022-09-16T09:02:11.671Z,7.53
2022-09-16T09:04:38.688Z,8.02
2022-09-16T09:07:34.194Z,7.78
2022-09-16T09:10:10.017Z,7.63
2022-09-16T09:12:42.718Z,8.68
2022-09-16T09:15:12.765Z,8.13
2022-09-16T09:17:54.557Z,7.80
2022-09-16T09:20:49.659Z,7.20
2022-09-16T09:23:34.125Z,7.00
2022-09-16T09:26:25.737Z,8.57
2022-09-16T09:29:15.385Z,8.10
2022-09-16T09:32:01.193Z,7.70
2022-09-16T09:34:41.080Z,7.72
2022-09-16T09:37:20.649Z,8.00
2022-09-16T09:40:08.590Z,7.63
2022-09-16T09:42:45.936Z,7.70
2022-09-16T09:45:42.032Z,7.75
2022-09-16T09:48:33.175Z,8.75
2022-09-16T09:51:05.685Z,8.68
2022-09-16T09:53:43.724Z,8.40
2022-09-16T09:56:17.958Z,9.00
2022-09-16T09:58:56.829Z,8.05
2022-09-16T10:01:24.642Z,8.27
2022-09-16T10:03:54.574Z,8.18
2022-09-16T10:06:28.733Z,8.73
2022-09-16T10:09:10.170Z,8.25
2022-09-16T10:11:47.181Z,8.63
2022-09-16T10:14:24.786Z,7.82
2022-09-16T10:16:52.933Z,7.25
2022-09-16T10:19:23.528Z,6.47
2022-09-16T10:21:55.785Z,5.93
2022-09-16T10:24:37.814Z,5.95
2022-09-16T10:27:37.602Z,5.80
2022-09-16T10:30:13.951Z,6.57
2022-09-16T10:32:58.606Z,6.18
2022-09-16T10:35:28.734Z,6.00
2022-09-16T10:38:04.891Z,5.60
2022-09-16T10:40:34.733Z,6.03
2022-09-16T10:43:06.261Z,5.60
2022-09-16T10:45:43.651Z,5.55
2022-09-16T10:48:17.324Z,5.45
2022-09-16T10:51:02.671Z,5.00
2022-09-16T10:53:44.505Z,5.43
2022-09-16T10:56:20.697Z,5.22
2022-09-16T10:58:47.376Z,5.25
2022-09-16T11:01:33.495Z,5.13
2022-09-16T11:04:08.239Z,5.47
2022-09-16T11:07:04.233Z,4.93
2022-09-16T11:09:52.246Z,4.70
2022-09-16T11:12:34.536Z,4.72
2022-09-16T11:15:32.226Z,4.65
2022-09-16T11:18:26.917Z,5.18
2022-09-16T11:21:18.061Z,4.68
2022-09-16T11:24:01.215Z,4.00
2022-09-16T11:26:36.780Z,4.57
2022-09-16T11:29:32.797Z,4.25
2022-09-16T11:32:08.109Z,4.40
2022-09-16T11:34:43.701Z,4.50
2022-09-16T11:37:23.783Z,4.90
2022-09-16T11:40:19.762Z,4.80
2022-09-16T11:43:12.760Z,4.88
2022-09-16T11:46:03.497Z,4.18
2022-09-16T11:48:59.148Z,4.30
2022-09-16T11:51:48.990Z,4.53
2022-09-16T11:54:18.692Z,6.00
2022-09-16T11:56:55.815Z,4.10
2022-09-16T11:59:24.972Z,4.47
2022-09-16T12:02:01.429Z,4.00
2022-09-16T12:04:37.713Z,3.90
2022-09-16T12:07:25.774Z,4.05
2022-09-16T12:10:00.037Z,4.03
2022-09-16T12:12:34.094Z,4.57
2022-09-16T12:15:06.672Z,4.50
2022-09-16T12:17:39.240Z,4.50
2022-09-16T12:20:15.884Z,4.50
2022-09-16T12:23:00.918Z,4.47
2022-09-16T12:25:45.476Z,4.50
2022-09-16T12:28:35.959Z,4.30
2022-09-16T12:31:05.908Z,4.80
2022-09-16T12:33:40.299Z,5.13
2022-09-16T12:36:18.041Z,4.53
2022-09-16T12:38:47.053Z,5.15
2022-09-16T12:41:39.253Z,5.00
2022-09-16T12:44:34.953Z,4.82
2022-09-16T12:47:27.251Z,4.68
2022-09-16T12:50:18.763Z,5.40
2022-09-16T12:52:57.328Z,4.95
2022-09-16T12:55:38.162Z,5.07
2022-09-16T12:58:23.486Z,5.32
2022-09-16T13:01:01.276Z,4.55
2022-09-16T13:03:31.502Z,4.40
2022-09-16T13:06:12.802Z,4.70
2022-09-16T13:08:39.446Z,4.80
2022-09-16T13:14:01.517Z,4.93
2022-09-16T13:16:35.539Z,4.70
2022-09-16T13:19:27.549Z,4.65
2022-09-16T13:22:00.943Z,3.92
2022-09-16T13:24:38.115Z,4.47
2022-09-16T13:27:28.615Z,4.78
2022-09-16T13:30:13.601Z,5.07
2022-09-16T13:32:57.416Z,4.63
2022-09-16T13:35:41.688Z,5.60
2022-09-16T13:38:14.384Z,4.35
2022-09-16T13:40:56.649Z,4.90
2022-09-16T13:43:36.637Z,5.05
2022-09-16T13:46:16.266Z,4.93
2022-09-16T13:49:00.425Z,4.80
2022-09-16T13:51:27.038Z,5.25
2022-09-16T13:53:53.608Z,4.63
2022-09-16T13:56:52.831Z,4.47
2022-09-16T13:59:19.282Z,4.50
2022-09-16T14:01:59.946Z,4.80
2022-09-16T14:04:29.530Z,4.50
2022-09-16T14:07:23.180Z,4.50
2022-09-16T14:09:58.827Z,4.28
2022-09-16T14:12:49.367Z,4.30
2022-09-16T14:15:17.086Z,4.05
2022-09-16T14:17:51.124Z,4.20
2022-09-16T14:20:21.927Z,4.68
2022-09-16T14:22:48.816Z,4.32
2022-09-16T14:25:44.613Z,4.43
2022-09-16T14:28:19.784Z,4.25
2022-09-16T14:30:55.470Z,4.75
2022-09-16T14:33:39.925Z,3.97
2022-09-16T14:36:40.528Z,4.60
2022-09-16T14:39:07.006Z,4.07
2022-09-16T14:41:44.585Z,4.05
2022-09-16T14:44:20.075Z,4.07
2022-09-16T14:46:49.447Z,3.90
2022-09-16T14:49:17.946Z,4.30
2022-09-16T14:51:52.122Z,4.28
2022-09-16T14:54:20.994Z,4.00
2022-09-16T14:57:07.243Z,4.05
2022-09-16T14:59:37.749Z,4.20
2022-09-16T15:02:13.562Z,3.97
2022-09-16T15:04:43.793Z,4.60
2022-09-16T15:07:19.770Z,4.07
2022-09-16T15:10:01.987Z,4.35
2022-09-16T15:12:33.224Z,3.38
2022-09-16T15:15:29.988Z,3.80
2022-09-16T15:18:00.929Z,4.10
2022-09-16T15:20:33.859Z,4.15
2022-09-16T15:23:09.654Z,3.78
2022-09-16T15:25:39.290Z,4.60
2022-09-16T15:28:16.945Z,4.05
2022-09-16T15:30:54.284Z,4.30
2022-09-16T15:33:41.852Z,4.32
2022-09-16T15:36:36.435Z,4.10
2022-09-16T15:39:04.449Z,4.38
2022-09-16T15:41:31.287Z,4.72
2022-09-16T15:43:59.938Z,4.45
2022-09-16T15:46:27.430Z,4.60
2022-09-16T15:48:58.425Z,4.63
2022-09-16T15:51:31.875Z,4.88
2022-09-16T15:54:20.039Z,4.28
2022-09-16T15:57:02.634Z,4.75
2022-09-16T15:59:44.929Z,4.30
2022-09-16T16:02:40.398Z,4.35
2022-09-16T16:05:10.593Z,4.70
2022-09-16T16:07:46.422Z,5.05
2022-09-16T16:10:18.243Z,4.22
2022-09-16T16:12:48.934Z,4.97
2022-09-16T16:15:18.556Z,4.80
2022-09-16T16:17:47.037Z,3.15
2022-09-16T16:20:15.338Z,2.42
2022-09-16T16:22:44.131Z,1.73
2022-09-16T16:25:11.686Z,2.05
2022-09-16T16:27:39.289Z,1.90
2022-09-16T16:30:06.868Z,2.55
2022-09-16T16:32:34.972Z,2.08
2022-09-16T16:35:01.787Z,1.67
2022-09-16T16:37:45.510Z,7.30
2022-09-16T16:40:14.204Z,1.85
2022-09-16T16:42:43.095Z,2.78
2022-09-16T16:45:11.426Z,2.17
2022-09-16T16:47:37.909Z,3.05
2022-09-16T16:50:04.819Z,2.75
2022-09-16T16:52:31.361Z,2.33
2022-09-16T16:54:58.148Z,2.22
2022-09-16T16:57:25.735Z,2.50
2022-09-16T16:59:52.306Z,2.40
2022-09-16T17:02:18.986Z,2.03
2022-09-16T17:04:45.580Z,2.22
2022-09-16T17:07:25.617Z,2.35
2022-09-16T17:09:53.952Z,2.22
2022-09-16T17:12:20.559Z,2.60
2022-09-16T17:14:47.206Z,1.98
2022-09-16T17:17:13.767Z,1.92
2022-09-16T17:19:40.280Z,1.70
2022-09-16T17:22:06.858Z,2.50
2022-09-16T17:24:34.784Z,2.35
2022-09-16T17:27:02.008Z,2.65
2022-09-16T17:29:28.770Z,2.08
2022-09-16T17:31:57.159Z,3.40
2022-09-16T17:34:26.422Z,1.92
2022-09-16T17:36:54.558Z,1.80
2022-09-16T17:39:22.021Z,1.63
2022-09-16T17:41:49.620Z,2.10
2022-09-16T17:44:18.115Z,1.85
2022-09-16T17:46:45.271Z,2.28
2022-09-16T17:49:21.595Z,1.70
2022-09-16T17:51:49.351Z,1.50
2022-09-16T17:54:16.336Z,2.08
2022-09-16T17:56:43.535Z,1.83
2022-09-16T17:59:11.828Z,1.75
2022-09-16T18:01:38.945Z,1.88
2022-09-16T18:04:05.533Z,2.05
2022-09-16T18:06:35.877Z,2.05
2022-09-16T18:09:05.290Z,2.28
2022-09-16T18:11:31.777Z,2.08
2022-09-16T18:14:00.507Z,2.22
2022-09-16T18:16:28.108Z,2.55
2022-09-16T18:18:56.738Z,2.30
2022-09-16T18:21:24.005Z,2.13
2022-09-16T18:24:02.751Z,2.95
2022-09-16T18:26:30.382Z,2.08
2022-09-16T18:29:09.478Z,2.10
2022-09-16T18:31:36.560Z,2.03
2022-09-16T18:34:03.692Z,2.70
2022-09-16T18:36:31.013Z,2.30
2022-09-16T18:38:59.144Z,2.47
2022-09-16T18:41:28.524Z,1.80
2022-09-16T18:44:00.555Z,1.95
2022-09-16T18:46:29.783Z,2.13
2022-09-16T18:48:57.391Z,2.72
2022-09-16T18:51:29.891Z,2.05
2022-09-16T18:54:02.286Z,1.98
2022-09-16T18:56:32.088Z,2.10
2022-09-16T18:59:22.697Z,1.67
2022-09-16T19:01:54.236Z,2.38
2022-09-16T19:04:24.498Z,2.63
2022-09-16T19:06:53.984Z,2.42
2022-09-16T19:09:23.450Z,2.40
2022-09-16T19:11:54.731Z,2.88
2022-09-16T19:14:24.463Z,2.15
2022-09-16T19:16:51.577Z,2.20
2022-09-16T19:19:19.479Z,2.35
2022-09-16T19:21:46.084Z,2.28
2022-09-16T19:24:18.280Z,2.53
2022-09-16T19:26:46.346Z,2.08
2022-09-16T19:29:14.757Z,2.45
2022-09-16T19:31:43.937Z,2.47
2022-09-16T19:34:11.610Z,2.60
2022-09-16T19:36:38.589Z,2.30
2022-09-16T19:39:07.039Z,2.03
2022-09-16T19:41:35.526Z,1.98
2022-09-16T19:44:05.068Z,2.17
2022-09-16T19:46:35.285Z,2.85
2022-09-16T19:49:02.382Z,2.15
2022-09-16T19:51:29.192Z,2.25
2022-09-16T19:53:55.804Z,2.50
2022-09-16T19:56:25.480Z,2.17
2022-09-16T19:58:53.307Z,2.00
2022-09-16T20:01:21.260Z,2.42
2022-09-16T20:03:49.522Z,2.50
2022-09-16T20:06:18.793Z,1.80
2022-09-16T20:08:47.448Z,2.42
2022-09-16T20:11:17.273Z,2.30
2022-09-16T20:14:01.453Z,2.20
2022-09-16T20:16:31.518Z,2.92
2022-09-16T20:18:58.385Z,2.10
2022-09-16T20:21:26.752Z,2.13
2022-09-16T20:23:54.666Z,1.88
2022-09-16T20:26:22.273Z,2.38
2022-09-16T20:28:52.249Z,2.72
2022-09-16T20:31:24.648Z,2.58
2022-09-16T20:33:51.734Z,2.10
2022-09-16T20:36:21.322Z,2.38
2022-09-16T20:38:48.512Z,3.15
2022-09-16T20:41:21.048Z,2.33
2022-09-16T20:43:48.616Z,2.67
2022-09-16T20:46:23.473Z,2.25
2022-09-16T20:48:54.534Z,2.10
2022-09-16T20:51:24.087Z,2.42
2022-09-16T20:53:53.007Z,2.13
2022-09-16T20:56:19.881Z,2.10
2022-09-16T20:58:46.779Z,2.13
2022-09-16T21:01:24.834Z,2.72
2022-09-16T21:03:57.064Z,2.22
2022-09-16T21:06:25.111Z,2.05
2022-09-16T21:08:56.516Z,2.03
2022-09-16T21:11:23.224Z,2.33
2022-09-16T21:13:58.355Z,2.25
2022-09-16T21:16:26.567Z,2.00
2022-09-16T21:18:57.507Z,1.85
2022-09-16T21:21:25.109Z,2.03
2022-09-16T21:23:53.451Z,1.60
2022-09-16T21:26:22.782Z,2.03
2022-09-16T21:29:04.580Z,2.20
2022-09-16T21:31:34.140Z,2.20
2022-09-16T21:34:03.162Z,2.33
2022-09-16T21:36:30.492Z,1.88
2022-09-16T21:38:58.332Z,1.92
2022-09-16T21:41:25.809Z,2.10
2022-09-16T21:43:55.724Z,2.10
2022-09-16T21:46:25.902Z,2.53
2022-09-16T21:48:55.124Z,2.20
2022-09-16T21:51:21.756Z,2.55
2022-09-16T21:53:48.493Z,1.90
2022-09-16T21:56:18.826Z,2.10
2022-09-16T21:58:46.748Z,1.90
2022-09-16T22:01:22.252Z,2.25
2022-09-16T22:03:55.113Z,2.50
2022-09-16T22:06:22.808Z,1.83
2022-09-16T22:08:50.172Z,2.03
2022-09-16T22:11:25.416Z,2.17
2022-09-16T22:13:53.548Z,2.38
2022-09-16T22:16:29.592Z,1.92
2022-09-16T22:18:58.807Z,2.58
2022-09-16T22:21:27.640Z,1.90
2022-09-16T22:23:54.413Z,2.90
2022-09-16T22:26:23.093Z,2.25
2022-09-16T22:28:50.578Z,1.80
2022-09-16T22:31:20.269Z,1.92
2022-09-16T22:33:48.329Z,1.98
2022-09-16T22:36:20.591Z,2.40
2022-09-16T22:38:53.176Z,2.28
2022-09-16T22:41:20.803Z,2.13
2022-09-16T22:43:49.507Z,1.95
2022-09-16T22:46:18.673Z,2.42
2022-09-16T22:48:46.147Z,2.35
2022-09-16T22:51:15.454Z,1.90
2022-09-16T22:53:43.466Z,2.03
2022-09-16T22:56:12.501Z,2.50
2022-09-16T22:58:39.586Z,2.10
2022-09-16T23:01:09.603Z,2.35
2022-09-16T23:03:36.720Z,1.92
2022-09-16T23:06:06.379Z,1.83
2022-09-16T23:08:36.814Z,2.15
2022-09-16T23:11:05.749Z,2.88
2022-09-16T23:13:33.859Z,2.03
2022-09-16T23:16:06.982Z,2.25
2022-09-16T23:18:34.805Z,2.33
2022-09-16T23:21:03.892Z,2.47
2022-09-16T23:23:31.510Z,2.50
2022-09-16T23:26:02.823Z,2.88
2022-09-16T23:28:30.961Z,2.47
2022-09-16T23:31:10.058Z,2.40
2022-09-16T23:33:37.239Z,1.80
2022-09-16T23:36:05.321Z,2.55
2022-09-16T23:38:33.516Z,2.50
2022-09-16T23:41:08.135Z,2.17
2022-09-16T23:43:34.886Z,2.45
2022-09-16T23:46:02.268Z,2.53
2022-09-16T23:48:31.464Z,2.30
2022-09-16T23:50:59.270Z,2.45
2022-09-16T23:53:26.510Z,2.55
2022-09-16T23:55:53.086Z,2.25
2022-09-16T23:58:19.779Z,2.20
